Time;durP1;ratioP1;P1;durP2;ratioP2;P2;SDS_P1;SDS_P2;PMS_P1;PMS_P2;Temp;Humidity;BMP_temperature;BMP_pressure;BME280_temperature;BME280_humidity;BME280_pressure;Samples;Min_cycle;Max_cycle;Signal;HPM_P1;HPM_P2
2022/06/12 00:01:34;;;;;;;6.18;1.65;;;;;;;12.81;100.00;102319.25;5210192;28;20540;-70
2022/06/12 00:04:05;;;;;;;7.15;1.65;;;;;;;12.76;100.00;102321.53;5221930;28;20192;-70
2022/06/12 00:06:35;;;;;;;7.88;1.55;;;;;;;12.70;100.00;102309.44;5220278;28;20029;-70
2022/06/12 00:09:06;;;;;;;4.70;1.15;;;;;;;12.64;100.00;102315.44;5223352;28;20497;-70
2022/06/12 00:11:36;;;;;;;6.30;1.67;;;;;;;12.59;100.00;102317.69;5221106;28;20123;-70
2022/06/12 00:14:07;;;;;;;4.70;1.65;;;;;;;12.52;100.00;102320.13;5224322;28;20021;-72
2022/06/12 00:16:41;;;;;;;6.70;1.70;;;;;;;12.46;100.00;102312.63;5210963;28;20092;-71
2022/06/12 00:19:13;;;;;;;7.50;1.55;;;;;;;12.39;100.00;102312.31;5223886;28;20028;-70
2022/06/12 00:21:43;;;;;;;4.97;1.35;;;;;;;12.34;100.00;102308.38;5221215;28;20543;-69
2022/06/12 00:24:16;;;;;;;6.15;1.63;;;;;;;12.29;100.00;102299.88;5218126;28;20028;-69
2022/06/12 00:26:51;;;;;;;2.67;1.23;;;;;;;12.21;100.00;102313.22;5226111;28;20029;-69
2022/06/12 00:29:25;;;;;;;3.17;1.50;;;;;;;12.11;100.00;102314.03;5226243;28;20017;-70
2022/06/12 00:32:01;;;;;;;6.38;1.63;;;;;;;12.04;100.00;102314.72;5226686;28;20271;-69
2022/06/12 00:34:36;;;;;;;4.88;1.50;;;;;;;12.01;100.00;102315.03;5225990;28;20457;-69
2022/06/12 00:37:07;;;;;;;4.32;1.42;;;;;;;11.98;100.00;102324.22;5216400;28;20025;-70
2022/06/12 00:39:40;;;;;;;8.68;1.42;;;;;;;11.96;100.00;102320.81;5222640;28;20117;-69
2022/06/12 00:42:31;;;;;;;4.68;1.60;;;;;;;11.90;100.00;102324.06;5224755;28;20025;-69
2022/06/12 00:45:36;;;;;;;4.25;1.40;;;;;;;11.82;100.00;102324.75;5213626;28;20021;-70
2022/06/12 00:48:12;;;;;;;9.35;1.58;;;;;;;11.71;100.00;102321.31;5226270;28;20025;-71
2022/06/12 00:50:49;;;;;;;6.93;1.85;;;;;;;11.59;100.00;102321.41;5222469;28;20459;-69
2022/06/12 00:53:29;;;;;;;8.43;1.73;;;;;;;11.49;100.00;102322.38;5206236;28;20025;-69
2022/06/12 00:56:17;;;;;;;8.52;1.80;;;;;;;11.40;100.00;102324.91;5223028;28;20021;-69
2022/06/12 00:58:52;;;;;;;5.45;1.55;;;;;;;11.31;100.00;102320.34;5214350;28;20382;-69
2022/06/12 01:01:30;;;;;;;6.93;1.58;;;;;;;11.23;100.00;102325.50;5210003;28;20505;-69
2022/06/12 01:06:53;;;;;;;8.05;1.70;;;;;;;10.99;100.00;102320.44;5214399;28;20024;-69
2022/06/12 01:09:28;;;;;;;11.38;1.52;;;;;;;10.89;100.00;102314.16;5205272;28;20032;-69
2022/06/12 01:12:00;;;;;;;;;;;;;;;10.80;100.00;102313.16;5205096;28;20057;-69
2022/06/12 01:14:37;;;;;;;5.53;1.42;;;;;;;10.71;100.00;102308.56;5205608;28;20061;-69
2022/06/12 01:17:10;;;;;;;4.97;1.60;;;;;;;10.66;100.00;102318.84;5209529;28;20440;-69
2022/06/12 01:20:01;;;;;;;11.18;1.80;;;;;;;10.61;100.00;102311.19;5209097;28;20108;-69
2022/06/12 01:23:08;;;;;;;4.57;1.13;;;;;;;10.53;100.00;102305.59;5221065;28;20588;-69
2022/06/12 01:26:16;;;;;;;4.97;1.77;;;;;;;10.44;100.00;102309.09;5204930;28;20033;-69
2022/06/12 01:29:05;;;;;;;5.53;1.63;;;;;;;10.40;100.00;102309.47;5205164;28;20097;-69
2022/06/12 01:31:36;;;;;;;7.43;1.50;;;;;;;10.35;100.00;102302.66;5204280;28;20040;-69
2022/06/12 01:34:18;;;;;;;7.40;1.50;;;;;;;10.50;100.00;102300.53;5213040;28;20402;-69
2022/06/12 01:36:55;;;;;;;3.92;1.30;;;;;;;10.52;100.00;102311.13;5211982;28;20104;-67
2022/06/12 01:39:50;;;;;;;6.25;1.67;;;;;;;10.48;100.00;102302.47;5209521;28;20386;-69
2022/06/12 01:42:58;;;;;;;7.70;1.85;;;;;;;10.44;100.00;102302.84;5223056;28;20021;-69
2022/06/12 01:45:34;;;;;;;4.40;1.30;;;;;;;10.37;100.00;102305.22;5206789;28;20022;-69
2022/06/12 01:48:13;;;;;;;5.38;1.50;;;;;;;10.29;100.00;102294.25;5214952;28;20025;-69
2022/06/12 01:51:19;;;;;;;8.02;1.50;;;;;;;10.21;100.00;102302.94;5204177;28;20544;-69
2022/06/12 01:54:18;;;;;;;5.72;1.88;;;;;;;10.09;100.00;102296.78;5210929;28;20422;-68
2022/06/12 01:56:59;;;;;;;8.50;1.80;;;;;;;10.05;100.00;102302.53;5211970;28;20079;-69
2022/06/12 01:59:43;;;;;;;5.35;1.58;;;;;;;10.01;100.00;102301.06;5206657;28;20108;-69
2022/06/12 02:02:25;;;;;;;7.18;1.42;;;;;;;10.02;100.00;102308.97;5204305;28;20040;-69
2022/06/12 02:05:10;;;;;;;8.85;1.70;;;;;;;10.03;100.00;102305.31;5217379;28;20110;-69
2022/06/12 02:07:57;;;;;;;7.55;2.25;;;;;;;10.13;100.00;102300.03;5204832;28;20387;-68
2022/06/12 02:10:48;;;;;;;7.50;1.80;;;;;;;10.16;100.00;102294.44;5214959;28;20499;-68
2022/06/12 02:13:22;;;;;;;4.68;1.55;;;;;;;10.14;100.00;102307.13;5214601;28;20136;-69
2022/06/12 02:16:15;;;;;;;9.20;1.52;;;;;;;10.08;100.00;102303.09;5204041;28;20033;-69
2022/06/12 02:18:52;;;;;;;13.95;1.83;;;;;;;9.98;100.00;102307.53;5209816;28;20032;-69
2022/06/12 02:21:43;;;;;;;6.80;1.10;;;;;;;9.93;100.00;102309.72;5217837;28;20104;-69
2022/06/12 02:24:22;;;;;;;3.78;1.33;;;;;;;9.94;100.00;102314.13;5206467;28;20482;-69
2022/06/12 02:27:00;;;;;;;6.18;1.48;;;;;;;9.90;100.00;102311.84;5206837;28;20021;-69
2022/06/12 02:29:36;;;;;;;11.05;1.95;;;;;;;9.80;100.00;102306.38;5204067;28;20025;-69
2022/06/12 02:32:16;;;;;;;7.68;2.13;;;;;;;9.73;100.00;102303.31;5206253;28;20025;-69
2022/06/12 02:34:53;;;;;;;5.80;1.58;;;;;;;9.68;100.00;102310.03;5206341;28;20029;-69
2022/06/12 02:37:30;;;;;;;7.63;1.75;;;;;;;9.65;100.00;102311.16;5204033;28;20104;-69
2022/06/12 02:40:08;;;;;;;8.05;1.88;;;;;;;9.58;100.00;102304.56;5214396;28;20054;-67
2022/06/12 02:42:43;;;;;;;5.07;1.55;;;;;;;9.52;100.00;102308.59;5205176;28;20033;-69
2022/06/12 02:45:20;;;;;;;5.20;1.42;;;;;;;9.47;100.00;102308.13;5203818;28;20049;-68
2022/06/12 02:47:51;;;;;;;8.25;2.08;;;;;;;9.42;100.00;102304.97;5217168;28;20018;-69
2022/06/12 02:50:26;;;;;;;13.40;1.90;;;;;;;9.39;100.00;102310.59;5205417;28;20029;-68
2022/06/12 02:53:10;;;;;;;4.30;1.80;;;;;;;9.39;100.00;102313.25;5215542;28;20086;-68
2022/06/12 02:55:59;;;;;;;5.97;1.80;;;;;;;9.37;100.00;102304.47;5207168;28;20018;-68
2022/06/12 02:58:46;;;;;;;5.35;1.73;;;;;;;9.33;100.00;102311.06;5211701;28;20068;-68
2022/06/12 03:01:23;;;;;;;8.40;1.80;;;;;;;9.29;100.00;102321.19;5206707;28;20025;-68
2022/06/12 03:04:21;;;;;;;8.32;2.03;;;;;;;9.23;100.00;102313.59;5208134;28;20037;-68
2022/06/12 03:06:52;;;;;;;7.03;2.35;;;;;;;9.20;100.00;102315.69;5212581;28;20024;-68
2022/06/12 03:09:23;;;;;;;7.85;2.40;;;;;;;9.14;100.00;102316.19;5220346;28;20017;-68
2022/06/12 03:11:55;;;;;;;11.57;1.95;;;;;;;9.10;100.00;102314.72;5208834;28;20017;-68
2022/06/12 03:14:26;;;;;;;6.95;1.98;;;;;;;9.10;100.00;102312.91;5208794;28;20399;-67
2022/06/12 03:16:57;;;;;;;12.35;2.30;;;;;;;9.07;100.00;102305.94;5211342;28;20025;-67
2022/06/12 03:19:31;;;;;;;8.68;2.10;;;;;;;9.07;100.00;102315.81;5209206;28;20033;-67
2022/06/12 03:22:09;;;;;;;5.57;1.80;;;;;;;9.04;100.00;102313.38;5204031;28;20525;-68
2022/06/12 03:25:05;;;;;;;9.70;2.13;;;;;;;9.01;100.00;102309.09;5218926;28;20108;-68
2022/06/12 03:27:58;;;;;;;6.40;1.92;;;;;;;9.03;100.00;102315.19;5206313;28;20029;-68
2022/06/12 03:30:53;;;;;;;4.40;2.25;;;;;;;8.99;100.00;102319.09;5202291;28;20032;-68
2022/06/12 03:33:39;;;;;;;8.20;2.15;;;;;;;8.92;100.00;102315.19;5215628;28;20052;-68
2022/06/12 03:36:28;;;;;;;;;;;;;;;8.89;100.00;102314.59;5207855;28;20030;-68
2022/06/12 03:39:18;;;;;;;4.43;1.98;;;;;;;8.87;100.00;102321.88;5216399;28;20032;-68
2022/06/12 03:42:24;;;;;;;7.03;1.98;;;;;;;8.87;100.00;102314.69;5222115;28;20842;-68
2022/06/12 03:44:56;;;;;;;8.43;1.83;;;;;;;8.96;100.00;102315.81;5207429;28;20449;-67
2022/06/12 03:47:35;;;;;;;7.60;2.10;;;;;;;9.00;100.00;102318.13;5212874;28;20502;-68
2022/06/12 03:50:29;;;;;;;7.75;2.38;;;;;;;8.99;100.00;102321.78;5214404;28;20032;-68
2022/06/12 03:53:09;;;;;;;8.23;2.00;;;;;;;8.98;100.00;102320.03;5211660;28;20025;-68
2022/06/12 03:59:09;;;;;;;9.40;2.20;;;;;;;9.03;100.00;102320.53;5210333;28;20041;-69
2022/06/12 04:01:43;;;;;;;11.77;2.72;;;;;;;9.06;100.00;102330.16;5207052;28;20029;-68
2022/06/12 04:04:16;;;;;;;9.85;3.17;;;;;;;9.10;100.00;102328.09;5214677;28;20156;-68
2022/06/12 04:06:48;;;;;;;8.85;2.40;;;;;;;9.15;100.00;102333.97;5211006;28;20103;-68
2022/06/12 04:09:25;;;;;;;13.57;2.88;;;;;;;9.19;100.00;102333.59;5214200;28;20043;-68
2022/06/12 04:12:01;;;;;;;8.15;2.15;;;;;;;9.25;100.00;102337.59;5220853;28;20439;-68
2022/06/12 04:14:38;;;;;;;11.45;2.65;;;;;;;9.30;100.00;102338.94;5214099;28;20020;-69
2022/06/12 04:17:09;;;;;;;11.27;2.67;;;;;;;9.37;100.00;102338.44;5209295;28;20017;-68
2022/06/12 04:20:05;;;;;;;7.10;2.47;;;;;;;9.44;100.00;102334.28;5213985;28;20033;-68
2022/06/12 04:22:52;;;;;;;16.27;3.95;;;;;;;9.55;100.00;102335.16;5215449;28;20030;-68
2022/06/12 04:25:44;;;;;;;9.57;2.42;;;;;;;9.68;100.00;102336.84;5206341;28;20040;-68
2022/06/12 04:28:35;;;;;;;8.07;2.75;;;;;;;9.78;100.00;102332.44;5211711;28;20040;-68
2022/06/12 04:31:14;;;;;;;15.35;2.53;;;;;;;9.87;100.00;102329.00;5212623;28;20025;-68
2022/06/12 04:34:04;;;;;;;10.60;2.25;;;;;;;9.99;100.00;102324.47;5218284;28;20479;-69
2022/06/12 04:36:34;;;;;;;9.50;2.53;;;;;;;10.09;100.00;102334.31;5215238;28;20107;-69
2022/06/12 04:39:06;;;;;;;13.48;3.00;;;;;;;10.21;100.00;102332.44;5212234;28;20104;-68
2022/06/12 04:41:37;;;;;;;15.02;3.17;;;;;;;10.34;100.00;102334.97;5213900;28;20112;-69
2022/06/12 04:44:08;;;;;;;9.15;2.80;;;;;;;10.46;100.00;102341.16;5205424;28;20101;-68
2022/06/12 04:46:42;;;;;;;17.70;2.90;;;;;;;10.60;100.00;102347.06;5206009;28;20037;-69
2022/06/12 04:49:16;;;;;;;8.90;2.40;;;;;;;10.74;100.00;102334.28;5206728;28;20014;-68
2022/06/12 04:51:49;;;;;;;13.10;2.60;;;;;;;10.85;100.00;102344.97;5218023;28;20275;-68
2022/06/12 04:54:21;;;;;;;19.05;2.80;;;;;;;10.95;100.00;102343.19;5218669;28;20494;-68
2022/06/12 04:56:52;;;;;;;13.07;2.60;;;;;;;11.07;100.00;102339.44;5210989;28;20025;-68
2022/06/12 04:59:23;;;;;;;8.43;3.42;;;;;;;11.18;100.00;102340.34;5210451;28;20105;-67
2022/06/12 05:01:54;;;;;;;12.45;2.65;;;;;;;11.31;100.00;102336.44;5206569;28;20025;-68
2022/06/12 05:04:26;;;;;;;8.40;2.22;;;;;;;11.43;100.00;102334.50;5218917;28;20021;-68
2022/06/12 05:06:56;;;;;;;10.45;2.90;;;;;;;11.55;100.00;102327.22;5214310;28;20032;-68
2022/06/12 05:09:32;;;;;;;10.63;2.40;;;;;;;11.66;100.00;102336.00;5222620;28;20013;-68
2022/06/12 05:12:02;;;;;;;;;;;;;;;11.80;100.00;102337.47;5206046;28;20487;-68
2022/06/12 05:14:33;;;;;;;14.35;2.85;;;;;;;11.95;100.00;102337.97;5220783;28;19919;-68
2022/06/12 05:17:10;;;;;;;16.70;3.15;;;;;;;12.10;100.00;102336.56;5213135;28;20028;-68
2022/06/12 05:19:43;;;;;;;13.02;3.40;;;;;;;12.29;100.00;102335.69;5210668;28;20484;-68
2022/06/12 05:22:14;;;;;;;14.10;2.78;;;;;;;12.52;100.00;102338.97;5221330;28;20483;-68
2022/06/12 05:24:45;;;;;;;10.40;2.33;;;;;;;12.73;100.00;102335.25;5212543;28;20379;-68
2022/06/12 05:27:18;;;;;;;12.77;3.03;;;;;;;12.92;100.00;102346.00;5223458;28;20024;-68
2022/06/12 05:29:52;;;;;;;18.90;3.40;;;;;;;13.14;100.00;102340.25;5225732;28;20033;-68
2022/06/12 05:32:23;;;;;;;14.93;3.22;;;;;;;13.32;100.00;102343.06;5217267;28;20163;-68
2022/06/12 05:34:53;;;;;;;15.15;3.63;;;;;;;13.50;100.00;102340.41;5207115;28;20423;-68
2022/06/12 05:37:24;;;;;;;7.47;2.58;;;;;;;13.67;100.00;102339.66;5216567;28;20246;-68
2022/06/12 05:39:55;;;;;;;12.98;2.85;;;;;;;13.89;100.00;102340.22;5212529;28;20514;-68
2022/06/12 05:42:25;;;;;;;10.80;3.17;;;;;;;14.11;100.00;102338.97;5222066;28;20086;-68
2022/06/12 05:44:56;;;;;;;26.00;3.25;;;;;;;14.37;100.00;102339.03;5222599;28;20078;-68
2022/06/12 05:47:26;;;;;;;13.20;3.38;;;;;;;14.49;100.00;102344.06;5222840;28;20233;-68
2022/06/12 05:49:57;;;;;;;15.60;3.35;;;;;;;14.62;100.00;102332.88;5222872;28;20017;-69
2022/06/12 05:52:27;;;;;;;14.05;3.42;;;;;;;14.88;100.00;102332.03;5212253;28;20021;-68
2022/06/12 05:54:58;;;;;;;15.75;3.42;;;;;;;14.82;100.00;102338.91;5222393;28;20052;-68
2022/06/12 05:57:29;;;;;;;26.33;4.65;;;;;;;14.91;100.00;102345.22;5222461;28;20025;-68
2022/06/12 05:59:59;;;;;;;15.45;3.13;;;;;;;15.18;100.00;102347.78;5205909;28;20056;-69
2022/06/12 06:02:30;;;;;;;19.75;3.72;;;;;;;15.52;100.00;102344.22;5208565;28;20025;-69
2022/06/12 06:05:01;;;;;;;11.50;3.28;;;;;;;15.68;100.00;102349.72;5213187;28;20481;-69
2022/06/12 06:07:33;;;;;;;10.07;3.20;;;;;;;16.00;100.00;102351.69;5210094;28;20079;-70
2022/06/12 06:10:07;;;;;;;16.30;3.75;;;;;;;16.09;100.00;102347.13;5215288;28;20057;-70
2022/06/12 06:12:38;;;;;;;14.57;3.80;;;;;;;16.00;100.00;102353.53;5208616;28;20021;-69
2022/06/12 06:15:10;;;;;;;16.15;4.18;;;;;;;16.36;100.00;102355.97;5207874;28;20048;-70
2022/06/12 06:17:41;;;;;;;20.98;3.90;;;;;;;16.89;100.00;102358.22;5204813;28;20061;-69
2022/06/12 06:20:22;;;;;;;23.73;3.95;;;;;;;17.66;100.00;102352.22;5212127;28;20049;-69
2022/06/12 06:22:53;;;;;;;19.20;4.47;;;;;;;18.58;100.00;102354.06;5217839;28;20071;-70
2022/06/12 06:25:25;;;;;;;16.00;3.75;;;;;;;18.92;100.00;102347.31;5215599;28;20025;-69
2022/06/12 06:27:56;;;;;;;16.25;4.32;;;;;;;19.40;100.00;102350.53;5211351;28;20013;-69
2022/06/12 06:30:28;;;;;;;19.92;4.13;;;;;;;20.50;100.00;102347.69;5215163;28;20068;-70
2022/06/12 06:32:59;;;;;;;14.65;3.88;;;;;;;20.31;100.00;102353.75;5206979;28;20534;-70
2022/06/12 06:35:29;;;;;;;16.88;3.85;;;;;;;19.67;100.00;102355.31;5200532;28;20037;-69
2022/06/12 06:38:00;;;;;;;21.98;5.15;;;;;;;18.72;100.00;102349.69;5215376;28;20053;-69
2022/06/12 06:40:32;;;;;;;20.38;5.18;;;;;;;18.91;100.00;102344.78;5203196;28;20052;-69
2022/06/12 06:43:03;;;;;;;22.75;4.68;;;;;;;19.38;100.00;102350.75;5208939;28;20031;-70
2022/06/12 06:48:25;;;;;;;19.65;4.53;;;;;;;20.36;100.00;102364.91;5205546;28;20018;-69
2022/06/12 06:50:56;;;;;;;19.52;4.95;;;;;;;21.19;100.00;102366.91;5208253;28;20067;-69
2022/06/12 06:53:26;;;;;;;21.67;4.65;;;;;;;21.43;100.00;102370.22;5205606;28;20609;-69
2022/06/12 06:55:57;;;;;;;22.85;4.07;;;;;;;21.97;100.00;102362.06;5209216;28;20060;-69
2022/06/12 06:58:30;;;;;;;25.58;5.35;;;;;;;21.84;100.00;102367.50;5213131;28;20029;-69
2022/06/12 07:01:00;;;;;;;18.77;4.63;;;;;;;22.08;100.00;102371.53;5207814;28;20124;-70
2022/06/12 07:03:31;;;;;;;18.95;3.97;;;;;;;22.34;100.00;102367.22;5211604;28;20041;-70
2022/06/12 07:06:02;;;;;;;21.77;4.97;;;;;;;22.19;100.00;102378.34;5212998;28;20028;-70
2022/06/12 07:08:33;;;;;;;15.55;4.20;;;;;;;22.51;100.00;102367.69;5215062;28;20119;-70
2022/06/12 07:11:03;;;;;;;16.35;4.38;;;;;;;23.24;100.00;102376.72;5213779;28;20044;-70
2022/06/12 07:13:34;;;;;;;25.08;5.35;;;;;;;22.81;100.00;102368.94;5217456;28;20024;-70
2022/06/12 07:16:05;;;;;;;21.15;4.85;;;;;;;23.38;100.00;102383.84;5213927;28;20457;-70
2022/06/12 07:18:35;;;;;;;21.58;4.78;;;;;;;23.34;100.00;102379.00;5218606;28;20548;-70
2022/06/12 07:21:06;;;;;;;16.92;4.35;;;;;;;23.34;100.00;102376.28;5219802;28;20025;-70
2022/06/12 07:23:37;;;;;;;19.48;5.00;;;;;;;22.86;100.00;102376.53;5218822;28;20067;-70
2022/06/12 07:26:21;;;;;;;25.05;4.78;;;;;;;23.22;100.00;102374.19;5213960;28;20064;-70
2022/06/12 07:28:52;;;;;;;20.17;4.57;;;;;;;23.63;100.00;102378.53;5219818;28;20084;-70
2022/06/12 07:31:23;;;;;;;15.85;4.38;;;;;;;24.68;98.77;102386.41;5215898;28;20087;-70
2022/06/12 07:33:54;;;;;;;19.98;4.20;;;;;;;24.43;100.00;102386.38;5216008;28;20487;-70
2022/06/12 07:36:26;;;;;;;16.35;4.68;;;;;;;24.12;100.00;102382.53;5219455;28;20086;-70
2022/06/12 07:38:57;;;;;;;19.33;4.75;;;;;;;23.68;100.00;102380.63;5206487;28;20056;-70
2022/06/12 07:41:28;;;;;;;13.75;3.53;;;;;;;24.91;90.40;102383.91;5224953;28;20100;-70
2022/06/12 07:43:58;;;;;;;15.77;3.80;;;;;;;25.12;93.49;102387.34;5206448;28;20565;-70
2022/06/12 07:46:29;;;;;;;17.50;4.15;;;;;;;24.30;98.54;102387.31;5206436;28;20021;-70
2022/06/12 07:49:00;;;;;;;14.60;3.47;;;;;;;24.17;100.00;102374.50;5206352;28;20076;-70
2022/06/12 07:51:30;;;;;;;22.92;4.97;;;;;;;24.19;100.00;102377.84;5206928;28;20093;-70
2022/06/12 07:54:01;;;;;;;19.42;4.55;;;;;;;24.20;96.70;102375.97;5207315;28;20036;-70
2022/06/12 07:56:32;;;;;;;12.98;3.25;;;;;;;24.73;98.64;102375.63;5206361;28;20022;-70
2022/06/12 07:59:04;;;;;;;20.98;4.30;;;;;;;24.91;98.08;102369.34;5205306;28;20029;-70
2022/06/12 08:01:35;;;;;;;15.40;3.63;;;;;;;25.71;91.18;102364.69;5211850;28;20032;-71
2022/06/12 08:04:08;;;;;;;15.50;4.10;;;;;;;25.47;90.30;102360.97;5212267;28;20029;-71
2022/06/12 08:06:38;;;;;;;18.63;4.18;;;;;;;25.65;89.26;102364.75;5218145;28;20096;-71
2022/06/12 08:09:11;;;;;;;13.00;3.40;;;;;;;26.77;79.02;102368.69;5213140;28;20100;-71
2022/06/12 08:11:45;;;;;;;15.18;3.88;;;;;;;25.66;79.48;102370.06;5223028;28;20025;-71
2022/06/12 08:14:17;;;;;;;16.70;4.03;;;;;;;25.81;83.83;102366.94;5222331;28;20112;-71
2022/06/12 08:16:48;;;;;;;16.17;4.30;;;;;;;25.97;81.76;102366.28;5217294;28;20029;-71
2022/06/12 08:22:22;;;;;;;11.80;3.15;;;;;;;25.26;85.69;102350.44;5211930;28;20029;-71
2022/06/12 08:24:52;;;;;;;13.45;2.70;;;;;;;25.35;82.78;102356.44;5218196;28;20029;-71
2022/06/12 08:27:23;;;;;;;13.50;3.30;;;;;;;26.24;76.45;102365.91;5218201;28;20087;-71
2022/06/12 08:29:53;;;;;;;9.20;2.83;;;;;;;26.15;74.62;102359.06;5208092;28;20479;-70
2022/06/12 08:32:24;;;;;;;16.83;3.58;;;;;;;25.92;75.23;102355.16;5216310;28;20223;-71
2022/06/12 08:35:01;;;;;;;9.32;2.92;;;;;;;25.85;76.58;102353.56;5211005;28;20036;-71
2022/06/12 08:37:37;;;;;;;15.98;3.58;;;;;;;25.79;81.42;102355.31;5210777;28;20132;-70
2022/06/12 08:40:20;;;;;;;10.63;3.55;;;;;;;25.20;82.07;102351.31;5213103;28;20030;-70
2022/06/12 08:42:56;;;;;;;12.82;3.45;;;;;;;25.02;81.62;102352.97;5214048;28;20029;-70
2022/06/12 08:45:33;;;;;;;12.45;2.70;;;;;;;25.98;71.25;102354.22;5217129;28;20315;-71
2022/06/12 08:48:14;;;;;;;13.55;3.88;;;;;;;26.77;68.66;102349.41;5205187;28;20053;-71
2022/06/12 08:51:04;;;;;;;9.50;2.58;;;;;;;26.80;68.57;102342.59;5212932;28;20029;-70
2022/06/12 08:53:40;;;;;;;11.98;2.80;;;;;;;26.46;70.85;102342.31;5216166;28;20033;-70
2022/06/12 08:56:18;;;;;;;12.63;2.72;;;;;;;26.32;70.70;102338.91;5210066;28;20056;-70
2022/06/12 08:59:21;;;;;;;11.10;2.80;;;;;;;26.04;70.54;102335.94;5211805;28;20021;-71
2022/06/12 09:01:52;;;;;;;11.82;3.03;;;;;;;26.50;65.69;102343.50;5217209;28;20029;-71
2022/06/12 09:04:24;;;;;;;9.85;2.67;;;;;;;26.47;67.87;102335.75;5209720;28;20025;-71
2022/06/12 09:07:16;;;;;;;9.52;2.40;;;;;;;26.36;61.06;102331.03;5214701;28;20334;-71
2022/06/12 09:09:52;;;;;;;10.90;2.65;;;;;;;26.55;58.27;102335.38;5215215;28;20276;-71
2022/06/12 09:12:30;;;;;;;9.93;2.55;;;;;;;25.78;69.32;102331.66;5209226;28;20028;-71
2022/06/12 09:15:34;;;;;;;12.75;2.65;;;;;;;26.35;68.67;102327.41;5214843;28;20111;-71
2022/06/12 09:18:23;;;;;;;7.90;2.25;;;;;;;26.94;61.83;102324.75;5219586;28;20028;-70
2022/06/12 09:21:26;;;;;;;13.25;3.15;;;;;;;26.79;61.61;102319.72;5204038;28;20109;-70
2022/06/12 09:24:00;;;;;;;15.60;3.00;;;;;;;25.41;66.07;102312.44;5204300;28;20029;-70
2022/06/12 09:27:02;;;;;;;11.43;2.95;;;;;;;25.54;66.51;102319.66;5217379;28;20037;-70
2022/06/12 09:29:35;;;;;;;10.05;2.50;;;;;;;25.69;64.05;102322.84;5210137;28;20548;-71
2022/06/12 09:32:22;;;;;;;11.05;2.65;;;;;;;25.01;66.17;102325.75;5212571;28;20040;-71
2022/06/12 09:34:52;;;;;;;11.73;2.92;;;;;;;24.88;68.08;102318.47;5216888;28;20025;-71
2022/06/12 09:40:19;;;;;;;10.40;2.90;;;;;;;24.90;64.69;102319.09;5215313;28;20089;-71
2022/06/12 09:43:01;;;;;;;15.38;2.65;;;;;;;24.94;65.85;102317.56;5213684;28;20391;-71
2022/06/12 09:45:58;;;;;;;11.05;2.38;;;;;;;25.24;69.97;102316.84;5220663;28;20374;-71
2022/06/12 09:48:38;;;;;;;8.18;2.05;;;;;;;25.70;60.62;102316.28;5219833;28;20603;-71
2022/06/12 09:51:24;;;;;;;10.18;2.05;;;;;;;25.56;62.37;102317.53;5216101;28;20029;-71
2022/06/12 09:54:15;;;;;;;9.00;2.83;;;;;;;25.37;69.88;102318.63;5207192;28;20394;-71
2022/06/12 09:57:07;;;;;;;15.02;2.53;;;;;;;25.34;68.05;102313.56;5211524;28;20033;-71
2022/06/12 09:59:54;;;;;;;9.68;2.83;;;;;;;24.96;65.54;102317.34;5217575;28;20037;-71
2022/06/12 10:02:56;;;;;;;10.57;2.50;;;;;;;24.24;77.08;102319.59;5215392;28;20041;-71
2022/06/12 10:05:35;;;;;;;10.80;3.17;;;;;;;23.87;78.19;102313.94;5203159;28;20104;-69
2022/06/12 10:08:13;;;;;;;10.00;2.83;;;;;;;23.47;85.65;102313.25;5206973;28;20475;-70
2022/06/12 10:10:49;;;;;;;13.60;2.85;;;;;;;23.55;81.58;102314.94;5208383;28;20029;-70
2022/06/12 10:13:31;;;;;;;15.77;2.95;;;;;;;23.41;80.84;102314.97;5206579;28;20017;-70
2022/06/12 10:16:10;;;;;;;10.90;3.10;;;;;;;23.11;78.82;102313.81;5208823;28;20632;-70
2022/06/12 10:19:01;;;;;;;10.88;2.88;;;;;;;23.21;84.02;102308.72;5213497;28;20047;-70
2022/06/12 10:21:35;;;;;;;7.47;2.45;;;;;;;23.82;77.88;102316.50;5205732;28;20126;-71
2022/06/12 10:24:07;;;;;;;9.38;1.90;;;;;;;24.50;76.98;102310.41;5216054;28;20056;-71
2022/06/12 10:26:38;;;;;;;9.63;2.40;;;;;;;25.04;71.50;102297.81;5204164;28;20429;-70
2022/06/12 10:29:12;;;;;;;7.88;2.17;;;;;;;25.24;71.01;102308.63;5207924;28;20032;-71
2022/06/12 10:31:48;;;;;;;12.00;2.28;;;;;;;24.85;71.46;102305.22;5210178;28;20029;-71
2022/06/12 10:34:22;;;;;;;11.25;2.40;;;;;;;25.01;76.42;102301.88;5211284;28;20029;-71
2022/06/12 10:36:52;;;;;;;7.57;2.22;;;;;;;25.42;75.08;102294.06;5211871;28;20486;-71
2022/06/12 10:39:26;;;;;;;14.30;2.15;;;;;;;25.74;66.17;102301.00;5210407;28;20075;-71
2022/06/12 10:42:00;;;;;;;15.82;2.70;;;;;;;25.27;65.48;102299.94;5211056;28;20399;-71
2022/06/12 10:44:35;;;;;;;13.73;2.55;;;;;;;24.66;69.64;102301.59;5215108;28;20501;-70
2022/06/12 10:47:17;;;;;;;;;;;;;;;24.67;71.06;102302.44;5211669;28;20208;-71
2022/06/12 10:50:01;;;;;;;11.02;3.22;;;;;;;25.18;67.66;102296.66;5213848;28;19916;-70
2022/06/12 10:52:32;;;;;;;7.45;2.78;;;;;;;24.68;70.90;102299.44;5211254;28;20025;-71
2022/06/12 10:55:13;;;;;;;11.43;2.47;;;;;;;24.15;75.98;102307.25;5218202;28;20084;-71
2022/06/12 10:57:51;;;;;;;8.63;2.50;;;;;;;24.45;71.83;102299.22;5214704;28;20017;-71
2022/06/12 11:00:24;;;;;;;14.00;2.70;;;;;;;25.00;71.99;102291.97;5209797;28;20029;-71
2022/06/12 11:02:57;;;;;;;10.93;2.47;;;;;;;24.37;67.00;102297.63;5213959;28;20035;-71
2022/06/12 11:05:53;;;;;;;12.73;2.70;;;;;;;23.90;70.17;102299.81;5207489;28;20082;-70
2022/06/12 11:08:47;;;;;;;11.93;2.30;;;;;;;23.77;72.67;102299.88;5204563;28;20048;-70
2022/06/12 11:11:24;;;;;;;9.07;2.33;;;;;;;24.24;71.35;102286.69;5211233;28;20420;-71
2022/06/12 11:14:32;;;;;;;11.00;2.53;;;;;;;24.40;69.63;102282.59;5215609;28;20074;-71
2022/06/12 11:17:36;;;;;;;14.73;3.28;;;;;;;24.47;68.28;102291.63;5209741;28;20398;-71
2022/06/12 11:20:40;;;;;;;11.18;2.50;;;;;;;24.83;69.06;102279.88;5211746;28;20029;-71
2022/06/12 11:23:41;;;;;;;11.43;2.58;;;;;;;24.59;66.92;102276.09;5206505;28;20523;-70
2022/06/12 11:26:49;;;;;;;9.02;2.60;;;;;;;24.17;66.06;102278.53;5203422;28;20056;-70
2022/06/12 11:29:22;;;;;;;11.13;2.95;;;;;;;23.67;69.98;102272.94;5202851;28;20038;-70
2022/06/12 11:32:00;;;;;;;11.38;2.63;;;;;;;23.80;69.90;102271.19;5207052;28;20064;-70
2022/06/12 11:34:47;;;;;;;13.60;2.47;;;;;;;24.06;70.37;102254.59;5202363;28;20025;-71
2022/06/12 11:37:37;;;;;;;17.33;2.97;;;;;;;23.85;70.88;102263.16;5207821;28;20037;-70
2022/06/12 11:40:27;;;;;;;9.93;2.63;;;;;;;23.98;73.15;102266.66;5214734;28;20029;-71
2022/06/12 11:43:32;;;;;;;12.70;2.92;;;;;;;24.17;73.31;102266.72;5207277;28;20025;-71
2022/06/12 11:46:14;;;;;;;8.27;2.35;;;;;;;23.91;69.47;102251.31;5198626;28;20480;-71
2022/06/12 11:49:10;;;;;;;13.07;2.38;;;;;;;23.88;69.82;102258.06;5200035;28;20035;-71
2022/06/12 11:52:06;;;;;;;10.35;2.63;;;;;;;23.81;72.32;102251.81;5205000;28;20028;-70
2022/06/12 11:55:14;;;;;;;9.93;3.03;;;;;;;23.77;72.64;102253.31;5209585;28;20026;-70
2022/06/12 11:58:22;;;;;;;7.93;2.30;;;;;;;24.20;73.44;102252.59;5211363;28;20029;-71
2022/06/12 12:01:27;;;;;;;10.45;2.40;;;;;;;24.35;71.56;102254.97;5207726;28;20112;-71
2022/06/12 12:04:12;;;;;;;7.47;2.15;;;;;;;24.61;61.04;102234.75;5216749;28;20060;-70
2022/06/12 12:06:55;;;;;;;14.30;3.00;;;;;;;24.66;69.39;102243.13;5192349;28;20037;-71
2022/06/12 12:09:50;;;;;;;8.40;2.35;;;;;;;24.97;64.34;102237.50;5220466;28;20112;-71
2022/06/12 12:12:26;;;;;;;9.10;3.03;;;;;;;24.76;64.74;102236.06;5223860;28;20029;-71
2022/06/12 12:15:00;;;;;;;10.95;2.85;;;;;;;24.84;63.37;102234.91;5223803;28;20290;-71
2022/06/12 12:17:40;;;;;;;10.18;2.47;;;;;;;24.65;65.15;102227.72;5214681;28;20032;-71
2022/06/12 12:20:20;;;;;;;10.55;2.53;;;;;;;24.86;65.62;102223.72;5223067;28;20368;-71
2022/06/12 12:23:14;;;;;;;10.35;2.83;;;;;;;25.11;62.80;102218.19;5224312;28;20460;-71
2022/06/12 12:25:51;;;;;;;7.53;2.35;;;;;;;24.52;65.40;102226.78;5221719;28;20091;-70